sensor_id;sensor_type;location;lat;lon;timestamp;temperature;humidity
12477;DHT22;6303;51.504;6.300;2023-06-10T00:02:03;29.10;53.60
12477;DHT22;6303;51.504;6.300;2023-06-10T00:04:30;29.10;53.70
12477;DHT22;6303;51.504;6.300;2023-06-10T00:06:57;29.00;53.70
12477;DHT22;6303;51.504;6.300;2023-06-10T00:09:24;29.10;53.80
12477;DHT22;6303;51.504;6.300;2023-06-10T00:11:51;29.00;53.70
12477;DHT22;6303;51.504;6.300;2023-06-10T00:14:19;29.00;53.80
12477;DHT22;6303;51.504;6.300;2023-06-10T00:16:48;29.00;53.80
12477;DHT22;6303;51.504;6.300;2023-06-10T00:19:15;29.00;53.80
12477;DHT22;6303;51.504;6.300;2023-06-10T00:21:44;29.00;54.00
12477;DHT22;6303;51.504;6.300;2023-06-10T00:24:11;29.00;53.90
12477;DHT22;6303;51.504;6.300;2023-06-10T00:26:38;29.00;54.00
12477;DHT22;6303;51.504;6.300;2023-06-10T00:29:06;28.90;53.90
12477;DHT22;6303;51.504;6.300;2023-06-10T00:31:34;28.90;54.00
12477;DHT22;6303;51.504;6.300;2023-06-10T00:34:02;28.90;54.00
12477;DHT22;6303;51.504;6.300;2023-06-10T00:36:31;28.90;54.00
12477;DHT22;6303;51.504;6.300;2023-06-10T00:38:58;28.90;54.00
12477;DHT22;6303;51.504;6.300;2023-06-10T00:41:25;28.90;54.10
12477;DHT22;6303;51.504;6.300;2023-06-10T00:43:53;28.90;54.10
12477;DHT22;6303;51.504;6.300;2023-06-10T00:46:21;28.90;54.10
12477;DHT22;6303;51.504;6.300;2023-06-10T00:48:49;28.80;54.10
12477;DHT22;6303;51.504;6.300;2023-06-10T00:51:18;28.80;54.10
12477;DHT22;6303;51.504;6.300;2023-06-10T00:53:46;28.90;54.20
12477;DHT22;6303;51.504;6.300;2023-06-10T00:56:13;28.80;54.20
12477;DHT22;6303;51.504;6.300;2023-06-10T00:58:41;28.80;54.20
12477;DHT22;6303;51.504;6.300;2023-06-10T01:01:08;27.60;53.50
12477;DHT22;6303;51.504;6.300;2023-06-10T01:03:36;28.80;54.20
12477;DHT22;6303;51.504;6.300;2023-06-10T01:06:11;28.80;54.30
12477;DHT22;6303;51.504;6.300;2023-06-10T01:08:49;28.80;54.30
12477;DHT22;6303;51.504;6.300;2023-06-10T01:11:20;28.80;54.30
12477;DHT22;6303;51.504;6.300;2023-06-10T01:13:50;28.80;54.30
12477;DHT22;6303;51.504;6.300;2023-06-10T01:16:19;28.80;54.30
12477;DHT22;6303;51.504;6.300;2023-06-10T01:18:46;28.70;54.40
12477;DHT22;6303;51.504;6.300;2023-06-10T01:21:19;28.70;54.40
12477;DHT22;6303;51.504;6.300;2023-06-10T01:23:47;28.70;54.40
12477;DHT22;6303;51.504;6.300;2023-06-10T01:26:14;28.70;54.40
12477;DHT22;6303;51.504;6.300;2023-06-10T01:28:48;28.70;54.40
12477;DHT22;6303;51.504;6.300;2023-06-10T01:31:28;28.70;54.40
12477;DHT22;6303;51.504;6.300;2023-06-10T01:34:00;28.70;54.50
12477;DHT22;6303;51.504;6.300;2023-06-10T01:36:29;28.70;54.40
12477;DHT22;6303;51.504;6.300;2023-06-10T01:38:59;28.60;54.40
12477;DHT22;6303;51.504;6.300;2023-06-10T01:41:26;28.70;54.50
12477;DHT22;6303;51.504;6.300;2023-06-10T01:43:54;28.30;54.30
12477;DHT22;6303;51.504;6.300;2023-06-10T01:46:21;28.60;54.50
12477;DHT22;6303;51.504;6.300;2023-06-10T01:48:49;28.60;54.50
12477;DHT22;6303;51.504;6.300;2023-06-10T01:51:16;28.60;54.60
12477;DHT22;6303;51.504;6.300;2023-06-10T01:53:44;28.60;54.60
12477;DHT22;6303;51.504;6.300;2023-06-10T01:56:11;28.60;54.60
12477;DHT22;6303;51.504;6.300;2023-06-10T01:58:42;28.60;54.70
12477;DHT22;6303;51.504;6.300;2023-06-10T02:01:09;28.60;54.80
12477;DHT22;6303;51.504;6.300;2023-06-10T02:03:37;28.50;54.70
12477;DHT22;6303;51.504;6.300;2023-06-10T02:06:04;28.50;54.70
12477;DHT22;6303;51.504;6.300;2023-06-10T02:08:32;28.50;54.70
12477;DHT22;6303;51.504;6.300;2023-06-10T02:11:01;28.50;54.70
12477;DHT22;6303;51.504;6.300;2023-06-10T02:13:29;28.50;54.80
12477;DHT22;6303;51.504;6.300;2023-06-10T02:15:56;28.50;54.80
12477;DHT22;6303;51.504;6.300;2023-06-10T02:18:23;28.50;54.80
12477;DHT22;6303;51.504;6.300;2023-06-10T02:20:50;28.50;54.90
12477;DHT22;6303;51.504;6.300;2023-06-10T02:23:17;28.40;54.90
12477;DHT22;6303;51.504;6.300;2023-06-10T02:25:44;28.50;55.00
12477;DHT22;6303;51.504;6.300;2023-06-10T02:28:14;28.50;55.00
12477;DHT22;6303;51.504;6.300;2023-06-10T02:30:42;28.40;54.90
12477;DHT22;6303;51.504;6.300;2023-06-10T02:33:09;28.40;55.00
12477;DHT22;6303;51.504;6.300;2023-06-10T02:35:38;28.40;55.00
12477;DHT22;6303;51.504;6.300;2023-06-10T02:38:05;28.40;55.10
12477;DHT22;6303;51.504;6.300;2023-06-10T02:40:33;28.40;55.00
12477;DHT22;6303;51.504;6.300;2023-06-10T02:43:00;28.40;55.10
12477;DHT22;6303;51.504;6.300;2023-06-10T02:45:29;28.40;55.10
12477;DHT22;6303;51.504;6.300;2023-06-10T02:47:58;28.30;55.00
12477;DHT22;6303;51.504;6.300;2023-06-10T02:50:25;28.40;55.10
12477;DHT22;6303;51.504;6.300;2023-06-10T02:53:01;28.40;55.20
12477;DHT22;6303;51.504;6.300;2023-06-10T02:55:28;28.30;55.20
12477;DHT22;6303;51.504;6.300;2023-06-10T02:58:00;28.30;55.20
12477;DHT22;6303;51.504;6.300;2023-06-10T03:00:30;28.30;55.20
12477;DHT22;6303;51.504;6.300;2023-06-10T03:02:57;28.30;54.70
12477;DHT22;6303;51.504;6.300;2023-06-10T03:05:32;28.30;54.30
12477;DHT22;6303;51.504;6.300;2023-06-10T03:08:03;28.30;54.10
12477;DHT22;6303;51.504;6.300;2023-06-10T03:10:33;28.30;53.90
12477;DHT22;6303;51.504;6.300;2023-06-10T03:13:01;28.30;53.80
12477;DHT22;6303;51.504;6.300;2023-06-10T03:15:31;28.30;53.70
12477;DHT22;6303;51.504;6.300;2023-06-10T03:17:59;28.30;53.60
12477;DHT22;6303;51.504;6.300;2023-06-10T03:20:28;28.30;53.50
12477;DHT22;6303;51.504;6.300;2023-06-10T03:22:56;28.30;53.50
12477;DHT22;6303;51.504;6.300;2023-06-10T03:25:23;28.20;53.40
12477;DHT22;6303;51.504;6.300;2023-06-10T03:27:53;28.20;53.40
12477;DHT22;6303;51.504;6.300;2023-06-10T03:30:20;28.20;53.30
12477;DHT22;6303;51.504;6.300;2023-06-10T03:32:49;28.20;53.30
12477;DHT22;6303;51.504;6.300;2023-06-10T03:35:18;28.20;53.30
12477;DHT22;6303;51.504;6.300;2023-06-10T03:37:46;28.20;53.30
12477;DHT22;6303;51.504;6.300;2023-06-10T03:40:13;28.20;53.20
12477;DHT22;6303;51.504;6.300;2023-06-10T03:42:44;28.20;53.20
12477;DHT22;6303;51.504;6.300;2023-06-10T03:45:13;28.20;53.20
12477;DHT22;6303;51.504;6.300;2023-06-10T03:47:40;28.20;53.10
12477;DHT22;6303;51.504;6.300;2023-06-10T03:50:14;28.20;53.10
12477;DHT22;6303;51.504;6.300;2023-06-10T03:52:43;28.10;53.10
12477;DHT22;6303;51.504;6.300;2023-06-10T03:55:12;28.20;53.10
12477;DHT22;6303;51.504;6.300;2023-06-10T03:57:42;28.20;53.00
12477;DHT22;6303;51.504;6.300;2023-06-10T04:00:11;28.10;52.90
12477;DHT22;6303;51.504;6.300;2023-06-10T04:02:41;28.20;52.90
12477;DHT22;6303;51.504;6.300;2023-06-10T04:05:17;28.20;52.80
12477;DHT22;6303;51.504;6.300;2023-06-10T04:07:46;28.20;52.70
12477;DHT22;6303;51.504;6.300;2023-06-10T04:10:14;28.20;52.80
12477;DHT22;6303;51.504;6.300;2023-06-10T04:12:41;28.20;52.70
12477;DHT22;6303;51.504;6.300;2023-06-10T04:15:09;28.20;52.70
12477;DHT22;6303;51.504;6.300;2023-06-10T04:17:37;28.30;52.60
12477;DHT22;6303;51.504;6.300;2023-06-10T04:20:06;28.30;52.60
12477;DHT22;6303;51.504;6.300;2023-06-10T04:22:36;28.20;52.50
12477;DHT22;6303;51.504;6.300;2023-06-10T04:25:04;28.30;52.50
12477;DHT22;6303;51.504;6.300;2023-06-10T04:27:33;28.30;52.40
12477;DHT22;6303;51.504;6.300;2023-06-10T04:30:00;28.30;52.30
12477;DHT22;6303;51.504;6.300;2023-06-10T04:32:29;28.30;52.30
12477;DHT22;6303;51.504;6.300;2023-06-10T04:34:56;28.30;52.30
12477;DHT22;6303;51.504;6.300;2023-06-10T04:37:23;28.30;52.20
12477;DHT22;6303;51.504;6.300;2023-06-10T04:39:52;28.30;52.10
12477;DHT22;6303;51.504;6.300;2023-06-10T04:42:19;28.30;52.70
12477;DHT22;6303;51.504;6.300;2023-06-10T04:44:46;28.30;52.00
12477;DHT22;6303;51.504;6.300;2023-06-10T04:47:14;28.30;52.00
12477;DHT22;6303;51.504;6.300;2023-06-10T04:49:44;28.40;51.90
12477;DHT22;6303;51.504;6.300;2023-06-10T04:52:11;28.40;51.80
12477;DHT22;6303;51.504;6.300;2023-06-10T04:54:40;28.40;52.50
12477;DHT22;6303;51.504;6.300;2023-06-10T04:57:09;28.40;51.70
12477;DHT22;6303;51.504;6.300;2023-06-10T04:59:37;28.40;51.60
12477;DHT22;6303;51.504;6.300;2023-06-10T05:02:04;28.50;51.60
12477;DHT22;6303;51.504;6.300;2023-06-10T05:04:31;28.50;52.10
12477;DHT22;6303;51.504;6.300;2023-06-10T05:06:58;28.50;51.50
12477;DHT22;6303;51.504;6.300;2023-06-10T05:09:25;28.50;51.30
12477;DHT22;6303;51.504;6.300;2023-06-10T05:11:53;28.50;51.30
12477;DHT22;6303;51.504;6.300;2023-06-10T05:14:22;28.50;51.20
12477;DHT22;6303;51.504;6.300;2023-06-10T05:16:49;28.50;51.20
12477;DHT22;6303;51.504;6.300;2023-06-10T05:19:16;28.50;51.10
12477;DHT22;6303;51.504;6.300;2023-06-10T05:21:44;28.60;51.10
12477;DHT22;6303;51.504;6.300;2023-06-10T05:24:11;28.60;51.00
12477;DHT22;6303;51.504;6.300;2023-06-10T05:26:38;28.60;50.90
12477;DHT22;6303;51.504;6.300;2023-06-10T05:29:07;28.60;50.90
12477;DHT22;6303;51.504;6.300;2023-06-10T05:31:36;28.60;50.80
12477;DHT22;6303;51.504;6.300;2023-06-10T05:34:03;28.70;50.80
12477;DHT22;6303;51.504;6.300;2023-06-10T05:36:30;28.60;50.60
12477;DHT22;6303;51.504;6.300;2023-06-10T05:38:58;28.70;50.60
12477;DHT22;6303;51.504;6.300;2023-06-10T05:41:25;28.70;50.50
12477;DHT22;6303;51.504;6.300;2023-06-10T05:43:52;28.70;50.40
12477;DHT22;6303;51.504;6.300;2023-06-10T05:46:19;28.70;51.00
12477;DHT22;6303;51.504;6.300;2023-06-10T05:48:48;28.70;50.30
12477;DHT22;6303;51.504;6.300;2023-06-10T05:51:15;28.70;50.20
12477;DHT22;6303;51.504;6.300;2023-06-10T05:53:42;28.80;50.20
12477;DHT22;6303;51.504;6.300;2023-06-10T05:56:12;28.80;50.10
12477;DHT22;6303;51.504;6.300;2023-06-10T05:58:39;28.80;50.10
12477;DHT22;6303;51.504;6.300;2023-06-10T06:01:06;28.80;50.00
12477;DHT22;6303;51.504;6.300;2023-06-10T06:03:33;28.90;50.00
12477;DHT22;6303;51.504;6.300;2023-06-10T06:06:02;28.90;49.90
12477;DHT22;6303;51.504;6.300;2023-06-10T06:11:04;28.90;49.80
12477;DHT22;6303;51.504;6.300;2023-06-10T06:13:31;28.90;49.80
12477;DHT22;6303;51.504;6.300;2023-06-10T06:15:58;28.90;49.60
12477;DHT22;6303;51.504;6.300;2023-06-10T06:18:25;28.90;49.60
12477;DHT22;6303;51.504;6.300;2023-06-10T06:20:52;28.90;49.50
12477;DHT22;6303;51.504;6.300;2023-06-10T06:23:21;28.90;49.40
12477;DHT22;6303;51.504;6.300;2023-06-10T06:25:48;29.00;49.50
12477;DHT22;6303;51.504;6.300;2023-06-10T06:28:15;29.00;49.60
12477;DHT22;6303;51.504;6.300;2023-06-10T06:30:42;29.00;49.50
12477;DHT22;6303;51.504;6.300;2023-06-10T06:33:09;29.00;49.40
12477;DHT22;6303;51.504;6.300;2023-06-10T06:35:36;29.00;49.40
12477;DHT22;6303;51.504;6.300;2023-06-10T06:38:04;29.10;49.40
12477;DHT22;6303;51.504;6.300;2023-06-10T06:40:33;29.10;49.50
12477;DHT22;6303;51.504;6.300;2023-06-10T06:43:00;29.10;49.30
12477;DHT22;6303;51.504;6.300;2023-06-10T06:45:36;29.10;49.20
12477;DHT22;6303;51.504;6.300;2023-06-10T06:48:05;29.10;49.10
12477;DHT22;6303;51.504;6.300;2023-06-10T06:50:32;29.10;49.10
12477;DHT22;6303;51.504;6.300;2023-06-10T06:52:59;29.20;49.20
12477;DHT22;6303;51.504;6.300;2023-06-10T06:55:26;29.20;49.20
12477;DHT22;6303;51.504;6.300;2023-06-10T06:57:54;29.20;49.20
12477;DHT22;6303;51.504;6.300;2023-06-10T07:00:22;29.30;49.10
12477;DHT22;6303;51.504;6.300;2023-06-10T07:02:49;29.30;49.10
12477;DHT22;6303;51.504;6.300;2023-06-10T07:05:16;29.30;49.10
12477;DHT22;6303;51.504;6.300;2023-06-10T07:07:43;29.30;49.10
12477;DHT22;6303;51.504;6.300;2023-06-10T07:10:11;29.30;49.30
12477;DHT22;6303;51.504;6.300;2023-06-10T07:12:38;29.30;49.40
12477;DHT22;6303;51.504;6.300;2023-06-10T07:15:07;29.40;49.30
12477;DHT22;6303;51.504;6.300;2023-06-10T07:17:34;29.40;49.20
12477;DHT22;6303;51.504;6.300;2023-06-10T07:20:01;29.50;49.00
12477;DHT22;6303;51.504;6.300;2023-06-10T07:22:29;29.50;49.00
12477;DHT22;6303;51.504;6.300;2023-06-10T07:24:56;29.50;48.90
12477;DHT22;6303;51.504;6.300;2023-06-10T07:27:23;29.50;48.80
12477;DHT22;6303;51.504;6.300;2023-06-10T07:29:50;29.50;48.80
12477;DHT22;6303;51.504;6.300;2023-06-10T07:32:19;29.60;49.00
12477;DHT22;6303;51.504;6.300;2023-06-10T07:34:47;29.50;48.70
12477;DHT22;6303;51.504;6.300;2023-06-10T07:37:14;29.60;48.50
12477;DHT22;6303;51.504;6.300;2023-06-10T07:39:41;29.60;48.40
12477;DHT22;6303;51.504;6.300;2023-06-10T07:42:09;29.60;48.30
12477;DHT22;6303;51.504;6.300;2023-06-10T07:44:36;29.60;48.20
12477;DHT22;6303;51.504;6.300;2023-06-10T07:47:04;29.70;48.10
12477;DHT22;6303;51.504;6.300;2023-06-10T07:49:32;29.70;48.10
12477;DHT22;6303;51.504;6.300;2023-06-10T07:51:59;29.70;47.90
12477;DHT22;6303;51.504;6.300;2023-06-10T07:54:26;29.70;47.80
12477;DHT22;6303;51.504;6.300;2023-06-10T07:56:53;29.80;47.80
12477;DHT22;6303;51.504;6.300;2023-06-10T07:59:20;29.80;47.80
12477;DHT22;6303;51.504;6.300;2023-06-10T08:01:47;29.80;47.70
12477;DHT22;6303;51.504;6.300;2023-06-10T08:04:14;29.80;47.70
12477;DHT22;6303;51.504;6.300;2023-06-10T08:06:42;29.80;47.70
12477;DHT22;6303;51.504;6.300;2023-06-10T08:09:09;29.80;47.50
12477;DHT22;6303;51.504;6.300;2023-06-10T08:11:37;29.90;47.50
12477;DHT22;6303;51.504;6.300;2023-06-10T08:14:04;29.90;47.50
12477;DHT22;6303;51.504;6.300;2023-06-10T08:16:31;29.90;47.50
12477;DHT22;6303;51.504;6.300;2023-06-10T08:18:58;29.90;47.50
12477;DHT22;6303;51.504;6.300;2023-06-10T08:21:25;30.00;47.50
12477;DHT22;6303;51.504;6.300;2023-06-10T08:23:55;30.00;47.50
12477;DHT22;6303;51.504;6.300;2023-06-10T08:26:22;30.00;47.40
12477;DHT22;6303;51.504;6.300;2023-06-10T08:28:49;30.10;47.40
12477;DHT22;6303;51.504;6.300;2023-06-10T08:31:16;30.10;47.50
12477;DHT22;6303;51.504;6.300;2023-06-10T08:33:43;30.10;47.40
12477;DHT22;6303;51.504;6.300;2023-06-10T08:36:10;30.10;47.40
12477;DHT22;6303;51.504;6.300;2023-06-10T08:38:37;30.10;47.20
12477;DHT22;6303;51.504;6.300;2023-06-10T08:41:06;30.20;47.90
12477;DHT22;6303;51.504;6.300;2023-06-10T08:43:36;30.20;47.20
12477;DHT22;6303;51.504;6.300;2023-06-10T08:46:04;30.20;47.10
12477;DHT22;6303;51.504;6.300;2023-06-10T08:48:35;30.20;47.00
12477;DHT22;6303;51.504;6.300;2023-06-10T08:51:06;30.30;46.90
12477;DHT22;6303;51.504;6.300;2023-06-10T08:53:37;30.30;46.80
12477;DHT22;6303;51.504;6.300;2023-06-10T08:56:06;30.30;46.80
12477;DHT22;6303;51.504;6.300;2023-06-10T08:58:33;30.30;46.70
12477;DHT22;6303;51.504;6.300;2023-06-10T09:01:06;30.30;46.60
12477;DHT22;6303;51.504;6.300;2023-06-10T09:03:33;30.40;46.70
12477;DHT22;6303;51.504;6.300;2023-06-10T09:06:01;30.40;46.50
12477;DHT22;6303;51.504;6.300;2023-06-10T09:08:28;30.40;46.50
12477;DHT22;6303;51.504;6.300;2023-06-10T09:10:56;30.40;46.50
12477;DHT22;6303;51.504;6.300;2023-06-10T09:13:24;30.70;46.70
12477;DHT22;6303;51.504;6.300;2023-06-10T09:15:51;30.40;46.50
12477;DHT22;6303;51.504;6.300;2023-06-10T09:18:18;30.50;46.60
12477;DHT22;6303;51.504;6.300;2023-06-10T09:20:46;30.50;46.60
12477;DHT22;6303;51.504;6.300;2023-06-10T09:23:13;30.50;46.60
12477;DHT22;6303;51.504;6.300;2023-06-10T09:25:41;30.50;46.60
12477;DHT22;6303;51.504;6.300;2023-06-10T09:28:13;30.50;46.50
12477;DHT22;6303;51.504;6.300;2023-06-10T09:30:42;30.50;46.50
12477;DHT22;6303;51.504;6.300;2023-06-10T09:33:13;30.50;46.60
12477;DHT22;6303;51.504;6.300;2023-06-10T09:35:46;30.50;46.80
12477;DHT22;6303;51.504;6.300;2023-06-10T09:38:13;30.60;47.00
12477;DHT22;6303;51.504;6.300;2023-06-10T09:40:49;30.60;47.10
12477;DHT22;6303;51.504;6.300;2023-06-10T09:43:17;30.60;47.20
12477;DHT22;6303;51.504;6.300;2023-06-10T09:45:47;30.60;47.20
12477;DHT22;6303;51.504;6.300;2023-06-10T09:48:14;30.60;47.30
12477;DHT22;6303;51.504;6.300;2023-06-10T09:50:42;30.70;47.40
12477;DHT22;6303;51.504;6.300;2023-06-10T09:53:10;30.70;47.10
12477;DHT22;6303;51.504;6.300;2023-06-10T09:55:37;30.70;46.90
12477;DHT22;6303;51.504;6.300;2023-06-10T09:58:05;30.70;46.90
12477;DHT22;6303;51.504;6.300;2023-06-10T10:00:32;30.80;47.00
12477;DHT22;6303;51.504;6.300;2023-06-10T10:03:01;30.80;46.90
12477;DHT22;6303;51.504;6.300;2023-06-10T10:05:29;30.80;46.90
12477;DHT22;6303;51.504;6.300;2023-06-10T10:07:56;30.80;46.90
12477;DHT22;6303;51.504;6.300;2023-06-10T10:10:23;30.80;46.90
12477;DHT22;6303;51.504;6.300;2023-06-10T10:12:54;30.80;46.80
12477;DHT22;6303;51.504;6.300;2023-06-10T10:15:24;30.80;46.80
12477;DHT22;6303;51.504;6.300;2023-06-10T10:17:55;30.80;46.70
12477;DHT22;6303;51.504;6.300;2023-06-10T10:20:29;30.80;46.70
12477;DHT22;6303;51.504;6.300;2023-06-10T10:22:57;30.80;46.60
12477;DHT22;6303;51.504;6.300;2023-06-10T10:25:28;30.80;47.20
12477;DHT22;6303;51.504;6.300;2023-06-10T10:27:57;30.80;46.50
12477;DHT22;6303;51.504;6.300;2023-06-10T10:30:26;30.80;46.30
12477;DHT22;6303;51.504;6.300;2023-06-10T10:32:57;30.80;46.20
12477;DHT22;6303;51.504;6.300;2023-06-10T10:35:27;30.80;46.20
12477;DHT22;6303;51.504;6.300;2023-06-10T10:37:54;30.80;46.20
12477;DHT22;6303;51.504;6.300;2023-06-10T10:40:22;30.80;46.10
12477;DHT22;6303;51.504;6.300;2023-06-10T10:42:51;30.90;46.10
12477;DHT22;6303;51.504;6.300;2023-06-10T10:45:18;30.80;46.10
12477;DHT22;6303;51.504;6.300;2023-06-10T10:47:46;30.90;46.20
12477;DHT22;6303;51.504;6.300;2023-06-10T10:50:19;30.80;46.00
12477;DHT22;6303;51.504;6.300;2023-06-10T10:52:52;30.80;46.10
12477;DHT22;6303;51.504;6.300;2023-06-10T10:55:20;30.80;46.00
12477;DHT22;6303;51.504;6.300;2023-06-10T10:57:54;30.80;46.00
12477;DHT22;6303;51.504;6.300;2023-06-10T11:00:27;30.80;46.00
12477;DHT22;6303;51.504;6.300;2023-06-10T11:02:58;30.80;46.00
12477;DHT22;6303;51.504;6.300;2023-06-10T11:05:37;30.90;46.10
12477;DHT22;6303;51.504;6.300;2023-06-10T11:08:07;30.90;46.00
12477;DHT22;6303;51.504;6.300;2023-06-10T11:10:35;30.90;45.80
12477;DHT22;6303;51.504;6.300;2023-06-10T11:13:06;30.80;45.70
12477;DHT22;6303;51.504;6.300;2023-06-10T11:15:39;30.80;45.70
12477;DHT22;6303;51.504;6.300;2023-06-10T11:18:14;30.80;45.60
12477;DHT22;6303;51.504;6.300;2023-06-10T11:20:51;30.90;45.60
12477;DHT22;6303;51.504;6.300;2023-06-10T11:23:41;30.90;45.50
12477;DHT22;6303;51.504;6.300;2023-06-10T11:26:17;30.80;45.30
12477;DHT22;6303;51.504;6.300;2023-06-10T11:29:07;30.80;45.70
12477;DHT22;6303;51.504;6.300;2023-06-10T11:31:45;30.80;45.40
12477;DHT22;6303;51.504;6.300;2023-06-10T11:34:13;30.80;45.20
12477;DHT22;6303;51.504;6.300;2023-06-10T11:36:41;30.80;45.00
12477;DHT22;6303;51.504;6.300;2023-06-10T11:39:12;30.80;44.80
12477;DHT22;6303;51.504;6.300;2023-06-10T11:41:39;30.80;44.80
12477;DHT22;6303;51.504;6.300;2023-06-10T11:44:11;30.80;44.80
12477;DHT22;6303;51.504;6.300;2023-06-10T11:46:39;30.80;44.90
12477;DHT22;6303;51.504;6.300;2023-06-10T11:49:08;30.80;44.70
12477;DHT22;6303;51.504;6.300;2023-06-10T11:51:37;30.80;44.80
12477;DHT22;6303;51.504;6.300;2023-06-10T11:54:08;30.70;44.80
12477;DHT22;6303;51.504;6.300;2023-06-10T11:56:37;30.70;44.60
12477;DHT22;6303;51.504;6.300;2023-06-10T11:59:05;30.70;44.60
12477;DHT22;6303;51.504;6.300;2023-06-10T12:01:34;30.70;44.80
12477;DHT22;6303;51.504;6.300;2023-06-10T12:04:03;30.70;44.70
12477;DHT22;6303;51.504;6.300;2023-06-10T12:06:44;30.70;44.80
12477;DHT22;6303;51.504;6.300;2023-06-10T12:11:58;30.70;44.70
12477;DHT22;6303;51.504;6.300;2023-06-10T12:14:51;30.60;44.60
12477;DHT22;6303;51.504;6.300;2023-06-10T12:17:20;30.60;44.60
12477;DHT22;6303;51.504;6.300;2023-06-10T12:19:48;31.30;45.20
12477;DHT22;6303;51.504;6.300;2023-06-10T12:22:16;30.50;44.60
12477;DHT22;6303;51.504;6.300;2023-06-10T12:24:45;30.50;44.50
12477;DHT22;6303;51.504;6.300;2023-06-10T12:27:14;30.50;45.10
12477;DHT22;6303;51.504;6.300;2023-06-10T12:29:51;30.50;45.60
12477;DHT22;6303;51.504;6.300;2023-06-10T12:32:20;30.50;45.80
12477;DHT22;6303;51.504;6.300;2023-06-10T12:35:02;30.50;45.90
12477;DHT22;6303;51.504;6.300;2023-06-10T12:37:30;30.50;46.00
12477;DHT22;6303;51.504;6.300;2023-06-10T12:40:00;30.50;45.90
12477;DHT22;6303;51.504;6.300;2023-06-10T12:42:30;30.50;45.20
12477;DHT22;6303;51.504;6.300;2023-06-10T12:44:59;30.50;45.10
12477;DHT22;6303;51.504;6.300;2023-06-10T12:47:30;30.50;44.80
12477;DHT22;6303;51.504;6.300;2023-06-10T12:49:58;30.50;44.70
12477;DHT22;6303;51.504;6.300;2023-06-10T12:52:25;30.50;44.50
12477;DHT22;6303;51.504;6.300;2023-06-10T12:54:53;30.40;44.30
12477;DHT22;6303;51.504;6.300;2023-06-10T12:57:21;30.40;44.20
12477;DHT22;6303;51.504;6.300;2023-06-10T12:59:49;30.40;44.00
12477;DHT22;6303;51.504;6.300;2023-06-10T13:02:18;30.40;43.90
12477;DHT22;6303;51.504;6.300;2023-06-10T13:04:46;30.40;44.10
12477;DHT22;6303;51.504;6.300;2023-06-10T13:07:14;30.40;44.10
12477;DHT22;6303;51.504;6.300;2023-06-10T13:09:41;30.40;44.10
12477;DHT22;6303;51.504;6.300;2023-06-10T13:12:08;30.40;44.00
12477;DHT22;6303;51.504;6.300;2023-06-10T13:14:36;30.30;44.60
12477;DHT22;6303;51.504;6.300;2023-06-10T13:17:04;30.40;44.50
12477;DHT22;6303;51.504;6.300;2023-06-10T13:19:32;30.40;44.70
12477;DHT22;6303;51.504;6.300;2023-06-10T13:21:59;30.30;44.30
12477;DHT22;6303;51.504;6.300;2023-06-10T13:24:26;30.30;44.10
12477;DHT22;6303;51.504;6.300;2023-06-10T13:26:53;30.30;44.60
12477;DHT22;6303;51.504;6.300;2023-06-10T13:29:22;30.30;44.00
12477;DHT22;6303;51.504;6.300;2023-06-10T13:31:49;30.30;43.90
12477;DHT22;6303;51.504;6.300;2023-06-10T13:34:17;30.30;44.00
12477;DHT22;6303;51.504;6.300;2023-06-10T13:36:44;30.30;44.10
12477;DHT22;6303;51.504;6.300;2023-06-10T13:39:11;30.30;44.00
12477;DHT22;6303;51.504;6.300;2023-06-10T13:41:40;30.30;43.90
12477;DHT22;6303;51.504;6.300;2023-06-10T13:44:07;30.30;43.70
12477;DHT22;6303;51.504;6.300;2023-06-10T13:46:34;30.30;43.50
12477;DHT22;6303;51.504;6.300;2023-06-10T13:49:01;30.30;43.50
12477;DHT22;6303;51.504;6.300;2023-06-10T13:51:30;30.30;43.50
12477;DHT22;6303;51.504;6.300;2023-06-10T13:53:57;30.30;43.80
12477;DHT22;6303;51.504;6.300;2023-06-10T13:56:24;30.30;44.00
12477;DHT22;6303;51.504;6.300;2023-06-10T13:58:51;30.30;43.90
12477;DHT22;6303;51.504;6.300;2023-06-10T14:01:18;30.30;43.70
12477;DHT22;6303;51.504;6.300;2023-06-10T14:03:45;30.30;43.60
12477;DHT22;6303;51.504;6.300;2023-06-10T14:06:12;30.30;43.70
12477;DHT22;6303;51.504;6.300;2023-06-10T14:08:45;30.30;43.80
12477;DHT22;6303;51.504;6.300;2023-06-10T14:11:12;30.30;43.60
12477;DHT22;6303;51.504;6.300;2023-06-10T14:13:39;30.30;43.70
12477;DHT22;6303;51.504;6.300;2023-06-10T14:16:06;30.30;43.70
12477;DHT22;6303;51.504;6.300;2023-06-10T14:18:33;30.30;43.80
12477;DHT22;6303;51.504;6.300;2023-06-10T14:21:00;30.30;43.80
12477;DHT22;6303;51.504;6.300;2023-06-10T14:23:27;30.30;43.80
12477;DHT22;6303;51.504;6.300;2023-06-10T14:25:56;30.30;44.00
12477;DHT22;6303;51.504;6.300;2023-06-10T14:28:23;30.20;44.00
12477;DHT22;6303;51.504;6.300;2023-06-10T14:30:51;30.20;44.10
12477;DHT22;6303;51.504;6.300;2023-06-10T14:33:18;30.30;44.10
12477;DHT22;6303;51.504;6.300;2023-06-10T14:35:45;30.20;44.30
12477;DHT22;6303;51.504;6.300;2023-06-10T14:38:12;30.20;44.40
12477;DHT22;6303;51.504;6.300;2023-06-10T14:40:39;30.30;44.20
12477;DHT22;6303;51.504;6.300;2023-06-10T14:43:08;30.20;44.00
12477;DHT22;6303;51.504;6.300;2023-06-10T14:45:35;30.20;44.20
12477;DHT22;6303;51.504;6.300;2023-06-10T14:48:03;30.20;43.90
12477;DHT22;6303;51.504;6.300;2023-06-10T14:50:30;30.20;44.20
12477;DHT22;6303;51.504;6.300;2023-06-10T14:52:58;30.20;43.90
12477;DHT22;6303;51.504;6.300;2023-06-10T14:55:25;30.30;44.40
12477;DHT22;6303;51.504;6.300;2023-06-10T14:57:52;30.30;44.10
12477;DHT22;6303;51.504;6.300;2023-06-10T15:00:20;30.30;44.00
12477;DHT22;6303;51.504;6.300;2023-06-10T15:02:49;30.20;44.10
12477;DHT22;6303;51.504;6.300;2023-06-10T15:05:16;30.30;45.20
12477;DHT22;6303;51.504;6.300;2023-06-10T15:07:45;30.30;45.40
12477;DHT22;6303;51.504;6.300;2023-06-10T15:10:12;30.30;44.90
12477;DHT22;6303;51.504;6.300;2023-06-10T15:12:39;30.30;44.60
12477;DHT22;6303;51.504;6.300;2023-06-10T15:15:06;30.30;44.50
12477;DHT22;6303;51.504;6.300;2023-06-10T15:17:35;30.30;44.50
12477;DHT22;6303;51.504;6.300;2023-06-10T15:20:02;30.30;44.50
12477;DHT22;6303;51.504;6.300;2023-06-10T15:22:29;30.30;44.30
12477;DHT22;6303;51.504;6.300;2023-06-10T15:24:56;30.30;44.30
12477;DHT22;6303;51.504;6.300;2023-06-10T15:27:24;30.30;44.40
12477;DHT22;6303;51.504;6.300;2023-06-10T15:29:51;30.30;44.50
12477;DHT22;6303;51.504;6.300;2023-06-10T15:32:18;30.30;44.60
12477;DHT22;6303;51.504;6.300;2023-06-10T15:34:46;30.30;44.60
12477;DHT22;6303;51.504;6.300;2023-06-10T15:37:14;30.30;44.40
12477;DHT22;6303;51.504;6.300;2023-06-10T15:39:41;30.30;44.30
12477;DHT22;6303;51.504;6.300;2023-06-10T15:42:08;30.30;44.30
12477;DHT22;6303;51.504;6.300;2023-06-10T15:44:35;30.30;44.20
12477;DHT22;6303;51.504;6.300;2023-06-10T15:47:02;30.30;44.50
12477;DHT22;6303;51.504;6.300;2023-06-10T15:49:30;30.30;44.50
12477;DHT22;6303;51.504;6.300;2023-06-10T15:51:58;30.30;44.90
12477;DHT22;6303;51.504;6.300;2023-06-10T15:54:25;30.30;45.00
12477;DHT22;6303;51.504;6.300;2023-06-10T15:56:52;30.30;44.70
12477;DHT22;6303;51.504;6.300;2023-06-10T15:59:19;30.30;44.60